sensor_id;sensor_type;location;lat;lon;timestamp;pressure;altitude;pressure_sealevel;temperature;humidity
32131;BME280;18639;50.716;7.086;2023-02-21T00:00:04;100892.47;;;8.65;100.00
32131;BME280;18639;50.716;7.086;2023-02-21T00:02:48;100886.06;;;8.55;100.00
32131;BME280;18639;50.716;7.086;2023-02-21T00:05:31;100883.34;;;8.58;100.00
32131;BME280;18639;50.716;7.086;2023-02-21T00:08:15;100870.59;;;8.55;100.00
32131;BME280;18639;50.716;7.086;2023-02-21T00:10:59;100880.00;;;8.56;100.00
32131;BME280;18639;50.716;7.086;2023-02-21T00:13:43;100874.16;;;8.53;100.00
32131;BME280;18639;50.716;7.086;2023-02-21T00:16:27;100868.03;;;8.55;100.00
32131;BME280;18639;50.716;7.086;2023-02-21T00:19:11;100862.53;;;8.44;100.00
32131;BME280;18639;50.716;7.086;2023-02-21T00:21:55;100861.81;;;8.42;100.00
32131;BME280;18639;50.716;7.086;2023-02-21T00:24:39;100878.63;;;8.49;100.00
32131;BME280;18639;50.716;7.086;2023-02-21T00:27:24;100857.78;;;8.36;100.00
32131;BME280;18639;50.716;7.086;2023-02-21T00:30:09;100874.53;;;8.45;100.00
32131;BME280;18639;50.716;7.086;2023-02-21T00:32:54;100866.13;;;8.41;100.00
32131;BME280;18639;50.716;7.086;2023-02-21T00:35:38;100878.94;;;8.43;100.00
32131;BME280;18639;50.716;7.086;2023-02-21T00:38:22;100868.75;;;8.40;100.00
32131;BME280;18639;50.716;7.086;2023-02-21T00:41:06;100884.81;;;8.45;100.00
32131;BME280;18639;50.716;7.086;2023-02-21T00:43:50;100887.41;;;8.45;100.00
32131;BME280;18639;50.716;7.086;2023-02-21T00:46:34;100890.59;;;8.50;100.00
32131;BME280;18639;50.716;7.086;2023-02-21T00:49:18;100887.41;;;8.45;100.00
32131;BME280;18639;50.716;7.086;2023-02-21T00:52:02;100907.88;;;8.48;100.00
32131;BME280;18639;50.716;7.086;2023-02-21T00:54:46;100874.97;;;8.36;100.00
32131;BME280;18639;50.716;7.086;2023-02-21T00:57:30;100890.69;;;8.49;100.00
32131;BME280;18639;50.716;7.086;2023-02-21T01:00:17;100889.06;;;8.46;100.00
32131;BME280;18639;50.716;7.086;2023-02-21T01:03:01;100884.69;;;8.48;100.00
32131;BME280;18639;50.716;7.086;2023-02-21T01:05:45;100881.34;;;8.46;100.00
32131;BME280;18639;50.716;7.086;2023-02-21T01:08:29;100877.88;;;8.47;100.00
32131;BME280;18639;50.716;7.086;2023-02-21T01:11:15;100889.69;;;8.51;100.00
32131;BME280;18639;50.716;7.086;2023-02-21T01:14:00;100886.22;;;8.52;100.00
32131;BME280;18639;50.716;7.086;2023-02-21T01:16:44;100879.53;;;8.48;100.00
32131;BME280;18639;50.716;7.086;2023-02-21T01:19:28;100885.44;;;8.50;100.00
32131;BME280;18639;50.716;7.086;2023-02-21T01:22:12;100887.13;;;8.51;100.00
32131;BME280;18639;50.716;7.086;2023-02-21T01:24:56;100861.13;;;8.38;100.00
32131;BME280;18639;50.716;7.086;2023-02-21T01:27:40;100878.00;;;8.44;100.00
32131;BME280;18639;50.716;7.086;2023-02-21T01:30:23;100877.81;;;8.49;100.00
32131;BME280;18639;50.716;7.086;2023-02-21T01:33:07;100871.09;;;8.44;100.00
32131;BME280;18639;50.716;7.086;2023-02-21T01:35:51;100872.72;;;8.47;100.00
32131;BME280;18639;50.716;7.086;2023-02-21T01:38:35;100872.56;;;8.50;100.00
32131;BME280;18639;50.716;7.086;2023-02-21T01:41:19;100871.81;;;8.48;100.00
32131;BME280;18639;50.716;7.086;2023-02-21T01:44:21;100875.06;;;8.52;100.00
32131;BME280;18639;50.716;7.086;2023-02-21T01:47:12;100870.97;;;8.48;100.00
32131;BME280;18639;50.716;7.086;2023-02-21T01:49:58;100874.22;;;8.51;100.00
32131;BME280;18639;50.716;7.086;2023-02-21T01:52:43;100869.38;;;8.45;100.00
32131;BME280;18639;50.716;7.086;2023-02-21T01:55:28;100869.38;;;8.45;100.00
32131;BME280;18639;50.716;7.086;2023-02-21T01:58:12;100879.25;;;8.54;100.00
32131;BME280;18639;50.716;7.086;2023-02-21T02:00:56;100872.72;;;8.47;100.00
32131;BME280;18639;50.716;7.086;2023-02-21T02:03:41;100861.56;;;8.47;100.00
32131;BME280;18639;50.716;7.086;2023-02-21T02:06:25;100866.50;;;8.51;100.00
32131;BME280;18639;50.716;7.086;2023-02-21T02:09:20;100865.66;;;8.51;100.00
32131;BME280;18639;50.716;7.086;2023-02-21T02:15:19;100863.94;;;8.51;100.00
32131;BME280;18639;50.716;7.086;2023-02-21T02:37:20;100858.16;;;8.46;100.00
32131;BME280;18639;50.716;7.086;2023-02-21T02:40:06;100853.91;;;8.45;100.00
32131;BME280;18639;50.716;7.086;2023-02-21T02:45:36;100851.13;;;8.50;100.00
32131;BME280;18639;50.716;7.086;2023-02-21T02:48:26;100838.75;;;8.39;100.00
32131;BME280;18639;50.716;7.086;2023-02-21T02:50:52;100819.91;;;8.20;100.00
32131;BME280;18639;50.716;7.086;2023-02-21T02:53:21;100845.56;;;8.40;100.00
32131;BME280;18639;50.716;7.086;2023-02-21T02:55:51;100853.09;;;8.44;100.00
32131;BME280;18639;50.716;7.086;2023-02-21T02:58:20;100840.59;;;8.37;100.00
32131;BME280;18639;50.716;7.086;2023-02-21T03:00:59;100834.59;;;8.36;100.00
32131;BME280;18639;50.716;7.086;2023-02-21T03:07:01;100836.00;;;8.43;100.00
32131;BME280;18639;50.716;7.086;2023-02-21T03:09:36;100825.06;;;8.38;100.00
32131;BME280;18639;50.716;7.086;2023-02-21T03:12:23;100835.22;;;8.41;100.00
32131;BME280;18639;50.716;7.086;2023-02-21T03:18:48;100838.75;;;8.39;100.00
32131;BME280;18639;50.716;7.086;2023-02-21T03:20:52;100830.13;;;8.40;100.00
32131;BME280;18639;50.716;7.086;2023-02-21T03:23:20;100834.38;;;8.41;100.00
32131;BME280;18639;50.716;7.086;2023-02-21T03:25:49;100838.47;;;8.45;100.00
32131;BME280;18639;50.716;7.086;2023-02-21T03:28:17;100819.22;;;8.35;100.00
32131;BME280;18639;50.716;7.086;2023-02-21T03:30:43;100841.94;;;8.44;100.00
32131;BME280;18639;50.716;7.086;2023-02-21T03:33:11;100817.41;;;8.37;100.00
32131;BME280;18639;50.716;7.086;2023-02-21T03:35:36;100824.97;;;8.40;100.00
32131;BME280;18639;50.716;7.086;2023-02-21T03:38:01;100834.09;;;8.47;100.00
32131;BME280;18639;50.716;7.086;2023-02-21T03:40:31;100837.22;;;8.54;100.00
32131;BME280;18639;50.716;7.086;2023-02-21T03:42:58;100848.34;;;8.54;100.00
32131;BME280;18639;50.716;7.086;2023-02-21T03:45:24;100824.75;;;8.44;100.00
32131;BME280;18639;50.716;7.086;2023-02-21T03:47:50;100821.34;;;8.44;100.00
32131;BME280;18639;50.716;7.086;2023-02-21T03:50:15;100813.72;;;8.42;100.00
32131;BME280;18639;50.716;7.086;2023-02-21T03:52:40;100830.31;;;8.54;100.00
32131;BME280;18639;50.716;7.086;2023-02-21T03:55:07;100824.94;;;8.59;100.00
32131;BME280;18639;50.716;7.086;2023-02-21T03:57:33;100814.53;;;8.43;100.00
32131;BME280;18639;50.716;7.086;2023-02-21T03:59:58;100819.09;;;8.55;100.00
32131;BME280;18639;50.716;7.086;2023-02-21T04:02:24;100822.59;;;8.54;100.00
32131;BME280;18639;50.716;7.086;2023-02-21T04:04:49;100804.69;;;8.51;100.00
32131;BME280;18639;50.716;7.086;2023-02-21T04:07:15;100805.75;;;8.47;100.00
32131;BME280;18639;50.716;7.086;2023-02-21T04:09:41;100792.94;;;8.45;100.00
32131;BME280;18639;50.716;7.086;2023-02-21T04:12:07;100809.47;;;8.59;100.00
32131;BME280;18639;50.716;7.086;2023-02-21T04:14:32;100799.59;;;8.50;100.00
32131;BME280;18639;50.716;7.086;2023-02-21T04:16:58;100786.81;;;8.48;100.00
32131;BME280;18639;50.716;7.086;2023-02-21T04:19:23;100792.94;;;8.45;100.00
32131;BME280;18639;50.716;7.086;2023-02-21T04:21:48;100806.81;;;8.60;100.00
32131;BME280;18639;50.716;7.086;2023-02-21T04:24:14;100786.59;;;8.53;100.00
32131;BME280;18639;50.716;7.086;2023-02-21T04:26:39;100811.97;;;8.60;100.00
32131;BME280;18639;50.716;7.086;2023-02-21T04:29:05;100811.06;;;8.61;100.00
32131;BME280;18639;50.716;7.086;2023-02-21T04:31:30;100817.13;;;8.60;100.00
32131;BME280;18639;50.716;7.086;2023-02-21T04:33:57;100812.19;;;8.56;100.00
32131;BME280;18639;50.716;7.086;2023-02-21T04:36:22;100775.88;;;8.26;100.00
32131;BME280;18639;50.716;7.086;2023-02-21T04:38:47;100810.75;;;8.50;100.00
32131;BME280;18639;50.716;7.086;2023-02-21T04:41:14;100822.44;;;8.57;100.00
32131;BME280;18639;50.716;7.086;2023-02-21T04:43:41;100801.44;;;8.48;100.00
32131;BME280;18639;50.716;7.086;2023-02-21T04:46:07;100800.75;;;8.44;100.00
32131;BME280;18639;50.716;7.086;2023-02-21T04:48:32;100813.25;;;8.52;100.00
32131;BME280;18639;50.716;7.086;2023-02-21T04:50:57;100809.09;;;8.49;100.00
32131;BME280;18639;50.716;7.086;2023-02-21T04:53:23;100807.50;;;8.47;100.00
32131;BME280;18639;50.716;7.086;2023-02-21T04:55:48;100790.16;;;8.33;100.00
32131;BME280;18639;50.716;7.086;2023-02-21T04:58:13;100800.91;;;8.41;100.00
32131;BME280;18639;50.716;7.086;2023-02-21T05:00:39;100802.56;;;8.42;100.00
32131;BME280;18639;50.716;7.086;2023-02-21T05:03:04;100803.75;;;8.35;100.00
32131;BME280;18639;50.716;7.086;2023-02-21T05:05:29;100791.94;;;8.31;100.00
32131;BME280;18639;50.716;7.086;2023-02-21T05:07:54;100809.97;;;8.31;100.00
32131;BME280;18639;50.716;7.086;2023-02-21T05:10:20;100762.16;;;7.89;100.00
32131;BME280;18639;50.716;7.086;2023-02-21T05:12:45;100807.03;;;8.20;100.00
32131;BME280;18639;50.716;7.086;2023-02-21T05:15:12;100804.28;;;8.06;100.00
32131;BME280;18639;50.716;7.086;2023-02-21T05:17:38;100809.56;;;8.02;100.00
32131;BME280;18639;50.716;7.086;2023-02-21T05:20:04;100808.31;;;7.92;100.00
32131;BME280;18639;50.716;7.086;2023-02-21T05:22:37;100808.69;;;7.85;100.00
32131;BME280;18639;50.716;7.086;2023-02-21T05:25:06;100815.00;;;7.78;100.00
32131;BME280;18639;50.716;7.086;2023-02-21T05:27:32;100784.44;;;7.53;100.00
32131;BME280;18639;50.716;7.086;2023-02-21T05:29:57;100787.91;;;7.52;100.00
32131;BME280;18639;50.716;7.086;2023-02-21T05:32:23;100810.00;;;7.56;100.00
32131;BME280;18639;50.716;7.086;2023-02-21T05:34:48;100767.66;;;7.26;100.00
32131;BME280;18639;50.716;7.086;2023-02-21T05:37:14;100762.69;;;7.02;100.00
32131;BME280;18639;50.716;7.086;2023-02-21T05:39:40;100796.56;;;7.31;100.00
32131;BME280;18639;50.716;7.086;2023-02-21T05:42:05;100796.13;;;7.21;100.00
32131;BME280;18639;50.716;7.086;2023-02-21T05:44:32;100737.91;;;6.81;100.00
32131;BME280;18639;50.716;7.086;2023-02-21T05:46:57;100732.41;;;6.70;100.00
32131;BME280;18639;50.716;7.086;2023-02-21T05:49:22;100794.16;;;7.07;100.00
32131;BME280;18639;50.716;7.086;2023-02-21T05:51:48;100787.69;;;6.99;100.00
32131;BME280;18639;50.716;7.086;2023-02-21T05:54:16;100807.00;;;7.07;100.00
32131;BME280;18639;50.716;7.086;2023-02-21T05:56:44;100776.44;;;6.81;100.00
32131;BME280;18639;50.716;7.086;2023-02-21T05:59:10;100819.34;;;6.99;100.00
32131;BME280;18639;50.716;7.086;2023-02-21T06:01:36;100784.41;;;6.75;100.00
32131;BME280;18639;50.716;7.086;2023-02-21T06:04:01;100726.09;;;6.37;100.00
32131;BME280;18639;50.716;7.086;2023-02-21T06:06:27;100803.16;;;6.77;100.00
32131;BME280;18639;50.716;7.086;2023-02-21T06:08:52;100795.66;;;6.72;100.00
32131;BME280;18639;50.716;7.086;2023-02-21T06:11:23;100817.66;;;6.78;100.00
32131;BME280;18639;50.716;7.086;2023-02-21T06:13:50;100816.88;;;6.76;100.00
32131;BME280;18639;50.716;7.086;2023-02-21T06:16:16;100816.34;;;6.68;100.00
32131;BME280;18639;50.716;7.086;2023-02-21T06:18:42;100795.44;;;6.57;100.00
32131;BME280;18639;50.716;7.086;2023-02-21T06:21:07;100787.00;;;6.53;100.00
32131;BME280;18639;50.716;7.086;2023-02-21T06:23:32;100792.69;;;6.61;100.00
32131;BME280;18639;50.716;7.086;2023-02-21T06:25:57;100777.53;;;6.55;100.00
32131;BME280;18639;50.716;7.086;2023-02-21T06:28:29;100819.31;;;6.79;100.00
32131;BME280;18639;50.716;7.086;2023-02-21T06:30:55;100817.38;;;6.84;100.00
32131;BME280;18639;50.716;7.086;2023-02-21T06:33:20;100807.31;;;6.80;100.00
32131;BME280;18639;50.716;7.086;2023-02-21T06:35:46;100806.47;;;6.79;100.00
32131;BME280;18639;50.716;7.086;2023-02-21T06:38:11;100783.81;;;6.68;100.00
32131;BME280;18639;50.716;7.086;2023-02-21T06:40:36;100821.59;;;6.87;100.00
32131;BME280;18639;50.716;7.086;2023-02-21T06:43:02;100825.69;;;6.91;100.00
32131;BME280;18639;50.716;7.086;2023-02-21T06:45:27;100821.38;;;6.91;100.00
32131;BME280;18639;50.716;7.086;2023-02-21T06:47:53;100814.56;;;6.90;100.00
32131;BME280;18639;50.716;7.086;2023-02-21T06:50:18;100828.69;;;7.00;100.00
32131;BME280;18639;50.716;7.086;2023-02-21T06:52:43;100831.16;;;7.03;100.00
32131;BME280;18639;50.716;7.086;2023-02-21T06:55:09;100829.28;;;7.07;100.00
32131;BME280;18639;50.716;7.086;2023-02-21T06:57:34;100824.09;;;7.08;100.00
32131;BME280;18639;50.716;7.086;2023-02-21T06:59:59;100826.31;;;7.16;100.00
32131;BME280;18639;50.716;7.086;2023-02-21T07:02:25;100828.41;;;7.27;100.00
32131;BME280;18639;50.716;7.086;2023-02-21T07:04:50;100812.50;;;7.18;100.00
32131;BME280;18639;50.716;7.086;2023-02-21T07:07:16;100767.38;;;6.93;100.00
32131;BME280;18639;50.716;7.086;2023-02-21T07:09:42;100724.00;;;6.66;100.00
32131;BME280;18639;50.716;7.086;2023-02-21T07:12:07;100733.09;;;6.73;100.00
32131;BME280;18639;50.716;7.086;2023-02-21T07:14:33;100721.03;;;6.75;100.00
32131;BME280;18639;50.716;7.086;2023-02-21T07:16:58;100817.63;;;7.39;100.00
32131;BME280;18639;50.716;7.086;2023-02-21T07:19:23;100742.19;;;7.01;100.00
32131;BME280;18639;50.716;7.086;2023-02-21T07:21:49;100812.84;;;7.50;100.00
32131;BME280;18639;50.716;7.086;2023-02-21T07:24:14;100809.31;;;7.52;100.00
32131;BME280;18639;50.716;7.086;2023-02-21T07:26:40;100829.03;;;7.71;100.00
32131;BME280;18639;50.716;7.086;2023-02-21T07:29:05;100827.94;;;7.76;100.00
32131;BME280;18639;50.716;7.086;2023-02-21T07:31:31;100796.88;;;7.62;100.00
32131;BME280;18639;50.716;7.086;2023-02-21T07:33:57;100825.78;;;7.86;100.00
32131;BME280;18639;50.716;7.086;2023-02-21T07:36:22;100781.16;;;7.68;100.00
32131;BME280;18639;50.716;7.086;2023-02-21T07:38:48;100816.03;;;7.92;100.00
32131;BME280;18639;50.716;7.086;2023-02-21T07:41:14;100834.91;;;8.12;100.00
32131;BME280;18639;50.716;7.086;2023-02-21T07:43:40;100806.38;;;7.97;100.00
32131;BME280;18639;50.716;7.086;2023-02-21T07:46:14;100828.94;;;8.28;100.00
32131;BME280;18639;50.716;7.086;2023-02-21T07:48:41;100805.25;;;8.22;100.00
32131;BME280;18639;50.716;7.086;2023-02-21T07:51:07;100825.81;;;8.40;100.00
32131;BME280;18639;50.716;7.086;2023-02-21T07:53:33;100821.97;;;8.49;100.00
32131;BME280;18639;50.716;7.086;2023-02-21T07:55:58;100813.63;;;8.61;100.00
32131;BME280;18639;50.716;7.086;2023-02-21T07:58:23;100826.06;;;8.87;100.00
32131;BME280;18639;50.716;7.086;2023-02-21T08:00:50;100826.47;;;8.97;100.00
32131;BME280;18639;50.716;7.086;2023-02-21T08:03:17;100823.25;;;8.92;100.00
32131;BME280;18639;50.716;7.086;2023-02-21T08:05:42;100773.72;;;8.70;100.00
32131;BME280;18639;50.716;7.086;2023-02-21T08:08:10;100798.63;;;9.04;100.00
32131;BME280;18639;50.716;7.086;2023-02-21T08:10:35;100778.47;;;8.95;100.00
32131;BME280;18639;50.716;7.086;2023-02-21T08:13:01;100818.09;;;9.42;100.00
32131;BME280;18639;50.716;7.086;2023-02-21T08:15:26;100812.81;;;9.45;100.00
32131;BME280;18639;50.716;7.086;2023-02-21T08:17:53;100804.31;;;9.43;100.00
32131;BME280;18639;50.716;7.086;2023-02-21T08:20:18;100807.47;;;9.48;100.00
32131;BME280;18639;50.716;7.086;2023-02-21T08:22:43;100809.53;;;9.42;100.00
32131;BME280;18639;50.716;7.086;2023-02-21T08:25:11;100832.03;;;9.55;100.00
32131;BME280;18639;50.716;7.086;2023-02-21T08:27:40;100804.56;;;9.39;100.00
32131;BME280;18639;50.716;7.086;2023-02-21T08:30:07;100813.78;;;9.43;100.00
32131;BME280;18639;50.716;7.086;2023-02-21T08:32:33;100831.22;;;9.55;100.00
32131;BME280;18639;50.716;7.086;2023-02-21T08:34:59;100821.88;;;9.52;100.00
32131;BME280;18639;50.716;7.086;2023-02-21T08:37:25;100824.19;;;9.57;100.00
32131;BME280;18639;50.716;7.086;2023-02-21T08:39:57;100827.63;;;9.57;100.00
32131;BME280;18639;50.716;7.086;2023-02-21T08:42:22;100766.16;;;9.17;100.00
32131;BME280;18639;50.716;7.086;2023-02-21T08:44:47;100834.44;;;9.58;100.00
32131;BME280;18639;50.716;7.086;2023-02-21T08:47:14;100828.06;;;9.65;100.00
32131;BME280;18639;50.716;7.086;2023-02-21T08:49:45;100824.81;;;9.78;100.00
32131;BME280;18639;50.716;7.086;2023-02-21T08:52:13;100795.19;;;9.69;100.00
32131;BME280;18639;50.716;7.086;2023-02-21T08:54:40;100820.75;;;10.05;100.00
32131;BME280;18639;50.716;7.086;2023-02-21T08:57:06;100797.28;;;10.09;100.00
32131;BME280;18639;50.716;7.086;2023-02-21T08:59:31;100813.34;;;10.30;100.00
32131;BME280;18639;50.716;7.086;2023-02-21T09:01:58;100819.00;;;10.37;100.00
32131;BME280;18639;50.716;7.086;2023-02-21T09:04:24;100796.84;;;10.33;100.00
32131;BME280;18639;50.716;7.086;2023-02-21T09:06:52;100786.00;;;10.26;100.00
32131;BME280;18639;50.716;7.086;2023-02-21T09:09:18;100799.31;;;10.50;100.00
32131;BME280;18639;50.716;7.086;2023-02-21T09:11:44;100746.34;;;10.27;100.00
32131;BME280;18639;50.716;7.086;2023-02-21T09:14:12;100795.69;;;10.68;100.00
32131;BME280;18639;50.716;7.086;2023-02-21T09:16:38;100770.59;;;10.84;100.00
32131;BME280;18639;50.716;7.086;2023-02-21T09:19:03;100799.09;;;11.27;100.00
32131;BME280;18639;50.716;7.086;2023-02-21T09:21:32;100796.38;;;11.85;100.00
32131;BME280;18639;50.716;7.086;2023-02-21T09:23:58;100778.03;;;12.42;100.00
32131;BME280;18639;50.716;7.086;2023-02-21T09:26:24;100787.56;;;12.81;100.00
32131;BME280;18639;50.716;7.086;2023-02-21T09:28:51;100767.13;;;13.01;100.00
32131;BME280;18639;50.716;7.086;2023-02-21T09:31:17;100773.16;;;13.15;98.99
32131;BME280;18639;50.716;7.086;2023-02-21T09:33:44;100747.00;;;13.18;94.65
32131;BME280;18639;50.716;7.086;2023-02-21T09:36:10;100748.44;;;12.96;93.63
32131;BME280;18639;50.716;7.086;2023-02-21T09:38:35;100747.38;;;13.37;93.28
32131;BME280;18639;50.716;7.086;2023-02-21T09:41:04;100759.06;;;13.91;91.16
32131;BME280;18639;50.716;7.086;2023-02-21T09:43:44;100757.81;;;14.32;89.29
32131;BME280;18639;50.716;7.086;2023-02-21T09:47:00;100779.41;;;14.80;86.77
32131;BME280;18639;50.716;7.086;2023-02-21T09:49:11;100780.53;;;15.11;84.69
32131;BME280;18639;50.716;7.086;2023-02-21T09:51:39;100755.44;;;15.10;83.31
32131;BME280;18639;50.716;7.086;2023-02-21T09:54:12;100748.00;;;15.16;79.89
32131;BME280;18639;50.716;7.086;2023-02-21T09:56:43;100769.44;;;15.53;80.25
32131;BME280;18639;50.716;7.086;2023-02-21T09:59:13;100779.84;;;15.65;75.91
32131;BME280;18639;50.716;7.086;2023-02-21T10:04:59;100772.94;;;15.30;74.07
32131;BME280;18639;50.716;7.086;2023-02-21T10:10:02;100770.34;;;14.27;81.25
32131;BME280;18639;50.716;7.086;2023-02-21T10:12:45;100770.41;;;13.54;85.09
32131;BME280;18639;50.716;7.086;2023-02-21T10:17:53;100766.44;;;13.98;85.64
32131;BME280;18639;50.716;7.086;2023-02-21T10:22:50;100753.88;;;13.19;87.24
32131;BME280;18639;50.716;7.086;2023-02-21T10:25:24;100764.75;;;13.24;89.90
32131;BME280;18639;50.716;7.086;2023-02-21T10:27:51;100753.44;;;13.12;89.54
32131;BME280;18639;50.716;7.086;2023-02-21T10:30:37;100768.03;;;13.00;89.61
32131;BME280;18639;50.716;7.086;2023-02-21T10:33:05;100751.47;;;13.16;89.36
32131;BME280;18639;50.716;7.086;2023-02-21T10:35:35;100762.91;;;13.13;88.46
32131;BME280;18639;50.716;7.086;2023-02-21T10:38:03;100735.34;;;13.11;88.49
32131;BME280;18639;50.716;7.086;2023-02-21T10:40:46;100733.16;;;13.04;89.09
32131;BME280;18639;50.716;7.086;2023-02-21T10:43:16;100762.34;;;13.33;87.95
32131;BME280;18639;50.716;7.086;2023-02-21T10:45:46;100735.28;;;13.25;87.08
32131;BME280;18639;50.716;7.086;2023-02-21T10:48:15;100722.84;;;13.41;86.98
32131;BME280;18639;50.716;7.086;2023-02-21T10:53:32;100756.41;;;13.80;85.37
32131;BME280;18639;50.716;7.086;2023-02-21T10:58:45;100756.66;;;13.77;86.08
32131;BME280;18639;50.716;7.086;2023-02-21T11:03:56;100734.53;;;13.35;86.25
32131;BME280;18639;50.716;7.086;2023-02-21T11:06:26;100721.00;;;12.42;90.18
32131;BME280;18639;50.716;7.086;2023-02-21T11:08:52;100660.19;;;11.42;94.10
32131;BME280;18639;50.716;7.086;2023-02-21T11:11:34;100737.97;;;12.20;95.83
32131;BME280;18639;50.716;7.086;2023-02-21T11:14:26;100710.41;;;11.80;96.51
32131;BME280;18639;50.716;7.086;2023-02-21T11:19:44;100727.03;;;12.03;97.24
32131;BME280;18639;50.716;7.086;2023-02-21T11:22:11;100688.00;;;11.65;96.51
32131;BME280;18639;50.716;7.086;2023-02-21T11:25:02;100716.56;;;12.04;96.97
32131;BME280;18639;50.716;7.086;2023-02-21T11:27:31;100702.34;;;11.97;97.11
32131;BME280;18639;50.716;7.086;2023-02-21T11:29:58;100718.78;;;11.84;98.29
32131;BME280;18639;50.716;7.086;2023-02-21T11:32:30;100702.56;;;11.94;98.85
32131;BME280;18639;50.716;7.086;2023-02-21T11:35:23;100614.44;;;11.42;98.11
32131;BME280;18639;50.716;7.086;2023-02-21T11:43:17;100697.53;;;12.05;97.70
32131;BME280;18639;50.716;7.086;2023-02-21T11:46:16;100698.13;;;11.96;98.29
32131;BME280;18639;50.716;7.086;2023-02-21T11:48:55;100655.31;;;11.64;98.02
32131;BME280;18639;50.716;7.086;2023-02-21T11:51:31;100662.03;;;11.66;98.44
32131;BME280;18639;50.716;7.086;2023-02-21T11:53:57;100671.88;;;11.88;99.46
32131;BME280;18639;50.716;7.086;2023-02-21T12:07:16;100665.38;;;12.08;98.49
32131;BME280;18639;50.716;7.086;2023-02-21T12:13:08;100644.09;;;12.17;98.09
32131;BME280;18639;50.716;7.086;2023-02-21T12:18:49;100646.25;;;12.10;96.88
32131;BME280;18639;50.716;7.086;2023-02-21T12:21:32;100645.91;;;12.02;97.13
32131;BME280;18639;50.716;7.086;2023-02-21T12:38:01;100605.84;;;12.20;95.82
32131;BME280;18639;50.716;7.086;2023-02-21T12:45:49;100613.09;;;12.41;96.79
32131;BME280;18639;50.716;7.086;2023-02-21T12:48:43;100607.59;;;12.45;96.38
32131;BME280;18639;50.716;7.086;2023-02-21T12:51:15;100574.22;;;12.41;96.04
32131;BME280;18639;50.716;7.086;2023-02-21T12:53:49;100598.56;;;12.63;96.23
32131;BME280;18639;50.716;7.086;2023-02-21T13:01:58;100578.34;;;12.69;97.30
32131;BME280;18639;50.716;7.086;2023-02-21T13:04:44;100581.53;;;12.72;96.47
32131;BME280;18639;50.716;7.086;2023-02-21T13:08:13;100573.56;;;12.75;95.51
32131;BME280;18639;50.716;7.086;2023-02-21T13:10:19;100570.22;;;12.73;94.48
32131;BME280;18639;50.716;7.086;2023-02-21T13:12:53;100549.19;;;12.65;94.53
32131;BME280;18639;50.716;7.086;2023-02-21T13:15:24;100562.63;;;12.83;94.86
32131;BME280;18639;50.716;7.086;2023-02-21T13:18:00;100542.88;;;12.69;94.60
32131;BME280;18639;50.716;7.086;2023-02-21T13:20:30;100551.72;;;12.90;95.58
32131;BME280;18639;50.716;7.086;2023-02-21T13:23:17;100556.94;;;13.14;94.62
32131;BME280;18639;50.716;7.086;2023-02-21T13:28:27;100553.03;;;13.08;95.45
32131;BME280;18639;50.716;7.086;2023-02-21T13:30:58;100546.47;;;13.16;95.31
32131;BME280;18639;50.716;7.086;2023-02-21T13:33:34;100518.44;;;12.84;94.81
32131;BME280;18639;50.716;7.086;2023-02-21T13:38:46;100535.72;;;12.96;96.94
32131;BME280;18639;50.716;7.086;2023-02-21T13:41:24;100531.03;;;13.01;96.28
32131;BME280;18639;50.716;7.086;2023-02-21T13:43:51;100532.97;;;13.11;95.32
32131;BME280;18639;50.716;7.086;2023-02-21T13:49:35;100532.25;;;13.08;97.06
32131;BME280;18639;50.716;7.086;2023-02-21T13:57:45;100529.03;;;13.18;97.51
32131;BME280;18639;50.716;7.086;2023-02-21T14:08:40;100517.00;;;13.17;98.19
32131;BME280;18639;50.716;7.086;2023-02-21T14:13:39;100510.13;;;13.16;99.44
32131;BME280;18639;50.716;7.086;2023-02-21T14:18:51;100493.41;;;13.20;99.17
32131;BME280;18639;50.716;7.086;2023-02-21T14:21:29;100500.00;;;13.13;100.00
32131;BME280;18639;50.716;7.086;2023-02-21T14:24:00;100501.00;;;13.10;99.69
32131;BME280;18639;50.716;7.086;2023-02-21T14:26:44;100474.59;;;12.81;100.00
32131;BME280;18639;50.716;7.086;2023-02-21T14:34:39;100494.72;;;13.01;100.00
32131;BME280;18639;50.716;7.086;2023-02-21T14:39:48;100490.06;;;12.94;100.00
32131;BME280;18639;50.716;7.086;2023-02-21T15:04:00;100467.16;;;12.64;100.00
32131;BME280;18639;50.716;7.086;2023-02-21T15:06:28;100454.88;;;12.55;100.00
32131;BME280;18639;50.716;7.086;2023-02-21T15:08:54;100484.75;;;12.72;100.00
32131;BME280;18639;50.716;7.086;2023-02-21T15:11:21;100484.16;;;12.68;100.00
32131;BME280;18639;50.716;7.086;2023-02-21T15:16:40;100478.19;;;12.55;100.00
32131;BME280;18639;50.716;7.086;2023-02-21T15:19:19;100472.44;;;12.39;100.00
32131;BME280;18639;50.716;7.086;2023-02-21T15:21:44;100471.38;;;12.41;100.00
32131;BME280;18639;50.716;7.086;2023-02-21T15:24:15;100472.72;;;12.47;100.00
32131;BME280;18639;50.716;7.086;2023-02-21T15:26:41;100475.53;;;12.44;100.00
32131;BME280;18639;50.716;7.086;2023-02-21T15:29:14;100462.25;;;12.36;100.00
32131;BME280;18639;50.716;7.086;2023-02-21T15:34:16;100458.38;;;12.17;100.00
32131;BME280;18639;50.716;7.086;2023-02-21T15:36:43;100480.50;;;12.34;100.00
32131;BME280;18639;50.716;7.086;2023-02-21T15:39:17;100477.28;;;12.43;100.00
32131;BME280;18639;50.716;7.086;2023-02-21T15:41:46;100489.34;;;12.32;100.00
32131;BME280;18639;50.716;7.086;2023-02-21T15:47:02;100457.66;;;12.15;100.00
32131;BME280;18639;50.716;7.086;2023-02-21T15:49:33;100447.28;;;12.03;100.00
32131;BME280;18639;50.716;7.086;2023-02-21T15:52:02;100459.00;;;12.08;100.00
32131;BME280;18639;50.716;7.086;2023-02-21T15:54:36;100467.50;;;12.10;100.00
32131;BME280;18639;50.716;7.086;2023-02-21T15:59:36;100433.75;;;11.74;100.00